createdAt,value
2018-10-02T00:01:19.098Z,2.20
2018-10-02T00:03:50.317Z,1.87
2018-10-02T00:06:19.776Z,1.67
2018-10-02T00:08:50.698Z,2.00
2018-10-02T00:11:25.218Z,3.00
2018-10-02T00:13:59.589Z,2.90
2018-10-02T00:16:28.795Z,2.65
2018-10-02T00:18:57.992Z,2.20
2018-10-02T00:21:28.262Z,1.90
2018-10-02T00:23:57.459Z,2.55
2018-10-02T00:26:26.692Z,2.47
2018-10-02T00:28:55.878Z,2.27
2018-10-02T00:31:25.425Z,2.52
2018-10-02T00:33:54.585Z,2.40
2018-10-02T00:36:23.799Z,2.50
2018-10-02T00:38:53.003Z,1.75
2018-10-02T00:41:22.237Z,1.95
2018-10-02T00:43:52.300Z,2.15
2018-10-02T00:46:21.451Z,2.05
2018-10-02T00:48:52.431Z,1.80
2018-10-02T00:51:21.706Z,1.52
2018-10-02T00:53:51.473Z,1.72
2018-10-02T00:56:20.684Z,2.02
2018-10-02T00:58:49.859Z,1.90
2018-10-02T01:01:19.564Z,1.90
2018-10-02T01:03:48.762Z,1.70
2018-10-02T01:06:18.223Z,2.10
2018-10-02T01:08:47.456Z,2.50
2018-10-02T01:11:16.734Z,2.17
2018-10-02T01:13:45.963Z,1.80
2018-10-02T01:16:15.175Z,2.05
2018-10-02T01:18:44.369Z,2.55
2018-10-02T01:21:13.733Z,2.20
2018-10-02T01:23:42.999Z,1.67
2018-10-02T01:26:12.186Z,1.85
2018-10-02T01:28:41.976Z,2.22
2018-10-02T01:31:11.315Z,2.62
2018-10-02T01:33:40.488Z,1.98
2018-10-02T01:36:10.236Z,1.62
2018-10-02T01:38:39.505Z,2.47
2018-10-02T01:41:08.721Z,1.87
2018-10-02T01:43:37.887Z,2.10
2018-10-02T01:46:07.149Z,1.65
2018-10-02T01:48:36.317Z,2.30
2018-10-02T01:51:05.574Z,2.15
2018-10-02T01:53:35.026Z,1.57
2018-10-02T01:56:04.242Z,1.80
2018-10-02T01:58:33.490Z,2.35
2018-10-02T02:01:03.760Z,2.25
2018-10-02T02:03:32.982Z,2.25
2018-10-02T02:06:02.225Z,2.98
2018-10-02T02:08:31.483Z,2.20
2018-10-02T02:11:00.762Z,2.40
2018-10-02T02:13:29.954Z,2.10
2018-10-02T02:15:59.915Z,2.50
2018-10-02T02:18:29.119Z,2.20
2018-10-02T02:20:59.383Z,2.77
2018-10-02T02:23:28.612Z,2.33
2018-10-02T02:25:57.809Z,2.35
2018-10-02T02:28:26.983Z,2.42
2018-10-02T02:30:59.906Z,2.50
2018-10-02T02:33:29.376Z,2.25
2018-10-02T02:35:58.605Z,1.72
2018-10-02T02:38:27.775Z,2.08
2018-10-02T02:40:58.376Z,1.98
2018-10-02T02:43:27.570Z,2.50
2018-10-02T02:45:57.396Z,3.00
2018-10-02T02:48:32.341Z,2.35
2018-10-02T02:51:06.955Z,2.30
2018-10-02T02:53:36.273Z,2.35
2018-10-02T02:56:05.712Z,3.00
2018-10-02T02:58:34.876Z,2.10
2018-10-02T03:01:04.189Z,2.35
2018-10-02T03:03:33.352Z,2.47
2018-10-02T03:06:02.526Z,2.65
2018-10-02T03:08:31.832Z,2.25
2018-10-02T03:11:01.155Z,2.37
2018-10-02T03:13:30.335Z,2.58
2018-10-02T03:16:01.466Z,1.95
2018-10-02T03:18:30.687Z,2.87
2018-10-02T03:21:00.563Z,2.70
2018-10-02T03:23:29.802Z,2.90
2018-10-02T03:25:59.666Z,2.20
2018-10-02T03:28:28.893Z,2.08
2018-10-02T03:30:59.030Z,2.30
2018-10-02T03:33:28.208Z,2.62
2018-10-02T03:35:59.186Z,2.45
2018-10-02T03:38:28.424Z,2.10
2018-10-02T03:40:57.742Z,2.15
2018-10-02T03:43:26.919Z,2.75
2018-10-02T03:45:56.186Z,2.35
2018-10-02T03:48:25.551Z,2.35
2018-10-02T03:50:54.918Z,2.15
2018-10-02T03:53:24.098Z,2.37
2018-10-02T03:55:53.280Z,2.70
2018-10-02T03:58:22.513Z,2.15
2018-10-02T04:00:51.881Z,2.50
2018-10-02T04:03:21.146Z,2.80
2018-10-02T04:05:50.268Z,2.72
2018-10-02T04:08:19.464Z,2.60
2018-10-02T04:10:48.775Z,3.25
2018-10-02T04:13:18.058Z,3.08
2018-10-02T04:15:47.165Z,2.90
2018-10-02T04:18:16.348Z,2.60
2018-10-02T04:20:45.721Z,2.83
2018-10-02T04:23:15.218Z,4.78
2018-10-02T04:25:46.828Z,3.90
2018-10-02T04:28:16.045Z,3.08
2018-10-02T04:30:46.513Z,4.15
2018-10-02T04:33:15.706Z,2.90
2018-10-02T04:35:44.957Z,3.08
2018-10-02T04:38:14.191Z,2.83
2018-10-02T04:40:43.648Z,3.05
2018-10-02T04:43:12.884Z,3.25
2018-10-02T04:45:42.082Z,2.83
2018-10-02T04:48:11.264Z,4.60
2018-10-02T04:50:40.577Z,5.70
2018-10-02T04:53:09.758Z,3.90
2018-10-02T04:55:38.982Z,3.33
2018-10-02T04:58:08.129Z,3.50
2018-10-02T05:00:37.376Z,3.92
2018-10-02T05:03:06.654Z,3.90
2018-10-02T05:05:35.885Z,3.50
2018-10-02T05:08:05.264Z,3.50
2018-10-02T05:10:34.545Z,2.50
2018-10-02T05:13:03.796Z,3.30
2018-10-02T05:15:32.996Z,5.58
2018-10-02T05:18:02.800Z,4.58
2018-10-02T05:20:32.448Z,5.37
2018-10-02T05:23:01.812Z,4.20
2018-10-02T05:25:31.013Z,4.47
2018-10-02T05:28:00.233Z,3.33
2018-10-02T05:30:29.582Z,5.17
2018-10-02T05:32:58.771Z,6.20
2018-10-02T05:35:28.321Z,4.80
2018-10-02T05:37:57.586Z,4.20
2018-10-02T05:40:27.862Z,4.80
2018-10-02T05:42:57.034Z,4.80
2018-10-02T05:45:26.243Z,5.08
2018-10-02T05:47:55.596Z,5.20
2018-10-02T05:50:25.863Z,5.08
2018-10-02T05:52:55.042Z,4.53
2018-10-02T05:55:24.255Z,5.08
2018-10-02T05:57:53.511Z,5.30
2018-10-02T06:00:22.916Z,4.12
2018-10-02T06:02:52.151Z,4.60
2018-10-02T06:05:21.359Z,4.65
2018-10-02T06:07:50.600Z,10.23
2018-10-02T06:10:20.568Z,6.75
2018-10-02T06:12:49.757Z,6.45
2018-10-02T06:15:18.966Z,10.72
2018-10-02T06:17:48.265Z,8.13
2018-10-02T06:20:17.694Z,7.92
2018-10-02T06:22:46.892Z,9.35
2018-10-02T06:25:16.133Z,9.30
2018-10-02T06:27:45.355Z,8.18
2018-10-02T06:30:14.720Z,7.33
2018-10-02T06:32:43.898Z,7.08
2018-10-02T06:35:13.074Z,5.28
2018-10-02T06:37:42.288Z,5.17
2018-10-02T06:40:11.638Z,4.60
2018-10-02T06:42:40.876Z,4.28
2018-10-02T06:45:10.243Z,4.55
2018-10-02T06:47:39.451Z,5.83
2018-10-02T06:50:10.055Z,4.12
2018-10-02T06:52:39.668Z,5.22
2018-10-02T06:55:08.995Z,3.98
2018-10-02T06:57:38.604Z,4.72
2018-10-02T07:00:08.020Z,5.17
2018-10-02T07:02:37.291Z,5.05
2018-10-02T07:05:07.506Z,4.75
2018-10-02T07:07:37.826Z,3.85
2018-10-02T07:10:08.662Z,4.85
2018-10-02T07:12:38.036Z,4.62
2018-10-02T07:15:07.623Z,5.30
2018-10-02T07:17:36.878Z,4.67
2018-10-02T07:20:09.197Z,4.80
2018-10-02T07:22:38.466Z,4.10
2018-10-02T07:25:08.310Z,4.55
2018-10-02T07:27:37.614Z,5.30
2018-10-02T07:30:07.540Z,5.40
2018-10-02T07:32:36.779Z,4.50
2018-10-02T07:35:08.376Z,6.33
2018-10-02T07:37:37.600Z,5.58
2018-10-02T07:40:08.781Z,5.28
2018-10-02T07:42:38.189Z,5.80
2018-10-02T07:45:08.130Z,5.05
2018-10-02T07:47:37.322Z,4.60
2018-10-02T07:50:06.785Z,5.33
2018-10-02T07:52:36.300Z,8.68
2018-10-02T07:55:05.845Z,5.00
2018-10-02T07:57:35.502Z,5.30
2018-10-02T08:00:05.588Z,8.48
2018-10-02T08:02:35.163Z,6.55
2018-10-02T08:05:04.495Z,5.47
2018-10-02T08:07:33.611Z,5.28
2018-10-02T08:10:02.842Z,5.40
2018-10-02T08:12:32.214Z,4.90
2018-10-02T08:15:01.438Z,5.55
2018-10-02T08:17:30.899Z,5.55
2018-10-02T08:20:00.118Z,5.12
2018-10-02T08:22:29.256Z,4.92
2018-10-02T08:24:58.425Z,5.00
2018-10-02T08:27:27.729Z,5.00
2018-10-02T08:29:56.952Z,5.80
2018-10-02T08:32:26.424Z,6.40
2018-10-02T08:34:55.627Z,6.78
2018-10-02T08:37:24.870Z,4.22
2018-10-02T08:39:54.389Z,4.33
2018-10-02T08:42:23.589Z,4.53
2018-10-02T08:44:54.356Z,4.25
2018-10-02T08:47:24.726Z,5.90
2018-10-02T08:49:53.867Z,4.78
2018-10-02T08:52:23.180Z,4.50
2018-10-02T08:54:52.829Z,4.03
2018-10-02T08:57:22.005Z,4.90
2018-10-02T08:59:51.267Z,3.47
2018-10-02T09:02:22.502Z,2.65
2018-10-02T09:04:51.807Z,3.20
2018-10-02T09:07:21.038Z,3.37
2018-10-02T09:09:50.547Z,3.27
2018-10-02T09:12:23.237Z,2.52
2018-10-02T09:14:52.507Z,2.85
2018-10-02T09:17:24.040Z,2.33
2018-10-02T09:19:53.303Z,3.15
2018-10-02T09:22:22.588Z,2.85
2018-10-02T09:24:51.867Z,2.95
2018-10-02T09:27:21.089Z,2.70
2018-10-02T09:29:55.938Z,2.58
2018-10-02T09:32:31.116Z,3.67
2018-10-02T09:35:05.443Z,3.65
2018-10-02T09:37:40.112Z,3.25
2018-10-02T09:40:15.706Z,3.37
2018-10-02T09:42:50.883Z,2.40
2018-10-02T09:45:20.560Z,3.27
2018-10-02T09:47:49.924Z,2.60
2018-10-02T09:50:19.936Z,3.47
2018-10-02T09:52:49.203Z,2.75
2018-10-02T09:55:18.606Z,2.40
2018-10-02T09:57:47.953Z,2.65
2018-10-02T10:00:21.805Z,2.80
2018-10-02T10:02:56.870Z,2.58
2018-10-02T10:05:27.351Z,1.72
2018-10-02T10:07:56.588Z,3.15
2018-10-02T10:10:28.239Z,1.90
2018-10-02T10:12:57.781Z,3.52
2018-10-02T10:15:27.036Z,3.50
2018-10-02T10:17:56.359Z,4.78
2018-10-02T10:20:25.632Z,1.87
2018-10-02T10:22:54.929Z,1.95
2018-10-02T10:25:24.304Z,2.70
2018-10-02T10:27:53.566Z,1.87
2018-10-02T10:30:22.855Z,1.77
2018-10-02T10:32:52.110Z,2.22
2018-10-02T10:35:21.468Z,1.65
2018-10-02T10:37:50.830Z,3.33
2018-10-02T10:40:20.212Z,2.30
2018-10-02T10:42:49.433Z,2.20
2018-10-02T10:45:18.629Z,1.80
2018-10-02T10:47:48.084Z,1.55
2018-10-02T10:50:18.603Z,1.47
2018-10-02T10:52:48.076Z,1.95
2018-10-02T10:55:31.279Z,3.00
2018-10-02T10:58:00.493Z,2.27
2018-10-02T11:00:29.828Z,1.50
2018-10-02T11:02:59.174Z,2.25
2018-10-02T11:05:28.321Z,2.35
2018-10-02T11:07:57.529Z,1.75
2018-10-02T11:10:26.897Z,1.95
2018-10-02T11:12:56.198Z,1.15
2018-10-02T11:15:27.639Z,2.00
2018-10-02T11:17:56.842Z,1.55
2018-10-02T11:20:28.771Z,1.77
2018-10-02T11:22:58.303Z,1.75
2018-10-02T11:25:27.671Z,1.55
2018-10-02T11:27:56.906Z,2.70
2018-10-02T11:30:26.232Z,1.77
2018-10-02T11:32:55.531Z,2.30
2018-10-02T11:35:24.921Z,1.62
2018-10-02T11:37:54.290Z,4.50
2018-10-02T11:40:23.783Z,1.45
2018-10-02T11:42:53.091Z,2.15
2018-10-02T11:45:26.228Z,1.27
2018-10-02T11:48:00.537Z,2.42
2018-10-02T11:50:32.112Z,1.82
2018-10-02T11:53:02.593Z,2.85
2018-10-02T11:55:32.042Z,1.02
2018-10-02T11:58:01.341Z,2.52
2018-10-02T12:00:30.691Z,1.55
2018-10-02T12:03:01.104Z,1.37
2018-10-02T12:05:30.516Z,1.87
2018-10-02T12:08:00.418Z,1.85
2018-10-02T12:10:29.847Z,2.50
2018-10-02T12:12:59.070Z,1.62
2018-10-02T12:15:28.226Z,0.93
2018-10-02T12:17:58.357Z,1.47
2018-10-02T12:20:27.759Z,1.45
2018-10-02T12:22:56.985Z,1.87
2018-10-02T12:25:26.196Z,1.95
2018-10-02T12:27:56.347Z,2.45
2018-10-02T12:30:26.966Z,1.85
2018-10-02T12:32:56.186Z,1.60
2018-10-02T12:35:25.403Z,1.52
2018-10-02T12:37:54.659Z,1.80
2018-10-02T12:40:25.008Z,2.08
2018-10-02T12:42:54.267Z,1.30
2018-10-02T12:45:23.758Z,1.35
2018-10-02T12:47:54.299Z,1.45
2018-10-02T12:50:23.730Z,1.75
2018-10-02T12:52:54.191Z,1.98
2018-10-02T12:55:23.356Z,1.30
2018-10-02T12:57:53.218Z,3.55
2018-10-02T13:00:22.541Z,2.10
2018-10-02T13:02:51.753Z,3.05
2018-10-02T13:05:21.907Z,2.47
2018-10-02T13:07:51.155Z,3.30
2018-10-02T13:10:21.315Z,1.57
2018-10-02T13:12:51.743Z,1.30
2018-10-02T13:15:21.626Z,1.40
2018-10-02T13:17:50.988Z,1.55
2018-10-02T13:20:21.572Z,1.77
2018-10-02T13:22:50.898Z,1.55
2018-10-02T13:25:21.232Z,2.10
2018-10-02T13:27:50.423Z,1.60
2018-10-02T13:30:21.240Z,1.45
2018-10-02T13:32:50.483Z,1.55
2018-10-02T13:35:20.674Z,1.10
2018-10-02T13:37:50.044Z,1.30
2018-10-02T13:40:21.188Z,1.20
2018-10-02T13:42:50.423Z,1.22
2018-10-02T13:45:20.988Z,2.47
2018-10-02T13:47:50.253Z,2.40
2018-10-02T13:50:19.625Z,1.70
2018-10-02T13:52:48.889Z,1.52
2018-10-02T13:55:18.187Z,1.65
2018-10-02T13:57:47.571Z,1.70
2018-10-02T14:00:21.629Z,1.60
2018-10-02T14:02:51.033Z,1.25
2018-10-02T14:05:20.615Z,2.00
2018-10-02T14:07:49.894Z,1.45
2018-10-02T14:10:22.611Z,2.42
2018-10-02T14:12:51.855Z,1.45
2018-10-02T14:15:22.002Z,1.80
2018-10-02T14:17:51.213Z,1.72
2018-10-02T14:20:22.577Z,3.15
2018-10-02T14:22:51.907Z,2.65
2018-10-02T14:25:21.617Z,2.58
2018-10-02T14:27:50.928Z,2.80
2018-10-02T14:30:23.705Z,2.35
2018-10-02T14:32:52.906Z,1.82
2018-10-02T14:35:22.934Z,1.80
2018-10-02T14:37:52.341Z,2.20
2018-10-02T14:40:25.169Z,3.60
2018-10-02T14:42:54.528Z,1.70
2018-10-02T14:45:25.394Z,2.55
2018-10-02T14:47:54.681Z,2.60
2018-10-02T14:50:25.069Z,2.33
2018-10-02T14:52:54.345Z,2.22
2018-10-02T14:55:24.427Z,1.85
2018-10-02T14:57:53.831Z,1.70
2018-10-02T15:00:23.896Z,2.90
2018-10-02T15:02:53.131Z,2.30
2018-10-02T15:05:24.414Z,2.10
2018-10-02T15:07:53.769Z,2.35
2018-10-02T15:10:25.295Z,1.75
2018-10-02T15:12:54.576Z,2.60
2018-10-02T15:15:26.786Z,3.15
2018-10-02T15:17:56.054Z,1.42
2018-10-02T15:20:27.915Z,2.20
2018-10-02T15:22:57.709Z,1.77
2018-10-02T15:25:28.678Z,1.55
2018-10-02T15:27:59.566Z,1.65
2018-10-02T15:30:31.872Z,1.62
2018-10-02T15:33:01.810Z,1.40
2018-10-02T15:35:33.966Z,1.90
2018-10-02T15:38:03.248Z,1.95
2018-10-02T15:40:35.519Z,2.65
2018-10-02T15:43:04.711Z,1.85
2018-10-02T15:45:33.904Z,1.85
2018-10-02T15:48:03.171Z,1.40
2018-10-02T15:50:34.021Z,1.40
2018-10-02T15:53:03.242Z,1.35
2018-10-02T15:55:33.892Z,1.92
2018-10-02T15:58:03.193Z,1.30
2018-10-02T16:00:33.980Z,1.42
2018-10-02T16:03:03.165Z,1.72
2018-10-02T16:05:33.419Z,1.40
2018-10-02T16:08:02.823Z,1.90
2018-10-02T16:10:33.842Z,0.95
2018-10-02T16:13:03.143Z,1.65
2018-10-02T16:15:33.624Z,1.50
2018-10-02T16:18:02.998Z,1.25
2018-10-02T16:20:33.339Z,1.50
2018-10-02T16:23:02.606Z,1.30
2018-10-02T16:25:33.404Z,1.95
2018-10-02T16:28:02.539Z,1.90
2018-10-02T16:30:33.861Z,1.25
2018-10-02T16:33:03.463Z,1.57
2018-10-02T16:35:33.913Z,1.60
2018-10-02T16:38:06.423Z,1.62
2018-10-02T16:43:39.440Z,1.80
2018-10-02T16:46:09.821Z,1.65
2018-10-02T16:48:41.651Z,1.47
2018-10-02T16:51:13.837Z,1.70
2018-10-02T16:53:43.080Z,1.55
2018-10-02T16:56:14.885Z,2.30
2018-10-02T16:58:44.338Z,1.60
2018-10-02T17:01:16.733Z,1.42
2018-10-02T17:03:47.433Z,1.45
2018-10-02T17:06:19.489Z,1.37
2018-10-02T17:08:48.675Z,1.92
2018-10-02T17:11:20.928Z,1.60
2018-10-02T17:13:50.190Z,1.52
2018-10-02T17:16:21.768Z,1.40
2018-10-02T17:18:51.014Z,2.27
2018-10-02T17:21:22.561Z,1.60
2018-10-02T17:23:51.757Z,1.45
2018-10-02T17:26:24.042Z,2.27
2018-10-02T17:29:13.679Z,1.77
2018-10-02T17:31:43.419Z,1.50
2018-10-02T17:34:12.728Z,1.35
2018-10-02T17:36:45.041Z,2.00
2018-10-02T17:39:14.621Z,1.57
2018-10-02T17:41:44.447Z,3.70
2018-10-02T17:44:14.465Z,2.25
2018-10-02T17:46:46.384Z,2.20
2018-10-02T17:49:15.516Z,1.40
2018-10-02T17:51:47.720Z,1.40
2018-10-02T17:54:17.608Z,2.00
2018-10-02T17:56:49.113Z,1.35
2018-10-02T17:59:18.449Z,1.27
2018-10-02T18:01:47.838Z,1.70
2018-10-02T18:04:17.035Z,1.85
2018-10-02T18:06:48.694Z,1.20
2018-10-02T18:09:17.895Z,1.55
2018-10-02T18:11:49.718Z,1.40
2018-10-02T18:14:18.920Z,1.37
2018-10-02T18:16:51.201Z,1.47
2018-10-02T18:19:20.396Z,1.45
2018-10-02T18:21:51.909Z,1.65
2018-10-02T18:24:21.265Z,1.40
2018-10-02T18:26:53.273Z,1.80
2018-10-02T18:29:22.458Z,1.40
2018-10-02T18:31:54.265Z,1.60
2018-10-02T18:34:23.523Z,1.60
2018-10-02T18:36:55.496Z,1.90
2018-10-02T18:39:24.835Z,1.72
2018-10-02T18:41:58.029Z,1.70
2018-10-02T18:44:27.759Z,2.08
2018-10-02T18:47:00.596Z,1.85
2018-10-02T18:49:29.954Z,2.67
2018-10-02T18:52:02.280Z,1.47
2018-10-02T18:54:31.606Z,0.80
2018-10-02T18:57:03.625Z,1.50
2018-10-02T18:59:33.618Z,2.00
2018-10-02T19:02:06.677Z,1.98
2018-10-02T19:04:37.377Z,1.87
2018-10-02T19:07:06.708Z,1.67
2018-10-02T19:09:36.818Z,1.50
2018-10-02T19:12:12.034Z,1.62
2018-10-02T19:14:41.286Z,1.05
2018-10-02T19:17:10.558Z,1.40
2018-10-02T19:19:44.912Z,1.60
2018-10-02T19:22:20.147Z,1.40
2018-10-02T19:24:49.508Z,1.77
2018-10-02T19:27:22.089Z,1.37
2018-10-02T19:29:56.652Z,1.57
2018-10-02T19:32:28.333Z,2.70
2018-10-02T19:34:58.199Z,2.02
2018-10-02T19:37:32.849Z,2.20
2018-10-02T19:40:02.350Z,1.65
2018-10-02T19:42:31.702Z,2.60
2018-10-02T19:45:05.213Z,2.08
2018-10-02T19:47:34.778Z,2.67
2018-10-02T19:50:07.163Z,1.60
2018-10-02T19:52:36.759Z,2.33
2018-10-02T19:55:06.107Z,2.02
2018-10-02T19:57:35.928Z,2.40
2018-10-02T20:00:09.346Z,1.95
2018-10-02T20:02:41.601Z,1.95
2018-10-02T20:05:11.374Z,2.20
2018-10-02T20:07:40.642Z,2.35
2018-10-02T20:10:09.890Z,2.12
2018-10-02T20:12:40.055Z,2.20
2018-10-02T20:15:09.452Z,1.80
2018-10-02T20:17:39.387Z,3.02
2018-10-02T20:20:08.586Z,1.92
2018-10-02T20:22:39.828Z,2.40
2018-10-02T20:25:17.436Z,2.67
2018-10-02T20:27:47.135Z,2.22
2018-10-02T20:30:17.498Z,2.15
2018-10-02T20:32:46.743Z,2.10
2018-10-02T20:35:16.069Z,1.95
2018-10-02T20:37:46.632Z,2.20
2018-10-02T20:40:16.141Z,2.00
2018-10-02T20:42:45.331Z,2.58
2018-10-02T20:45:20.071Z,2.15
2018-10-02T20:47:49.368Z,3.17
2018-10-02T20:50:21.219Z,2.30
2018-10-02T20:52:50.669Z,2.75
2018-10-02T20:55:21.711Z,2.98
2018-10-02T20:57:51.108Z,2.05
2018-10-02T21:00:20.919Z,2.02
2018-10-02T21:02:50.543Z,2.33
2018-10-02T21:05:21.136Z,2.10
2018-10-02T21:07:50.657Z,2.47
2018-10-02T21:10:20.308Z,2.02
2018-10-02T21:12:49.838Z,1.82
2018-10-02T21:15:20.961Z,2.02
2018-10-02T21:17:52.827Z,2.35
2018-10-02T21:20:23.714Z,2.35
2018-10-02T21:22:53.222Z,2.37
2018-10-02T21:25:22.609Z,1.60
2018-10-02T21:27:51.901Z,2.62
2018-10-02T21:30:23.772Z,2.58
2018-10-02T21:32:53.096Z,1.98
2018-10-02T21:35:24.520Z,2.77
2018-10-02T21:37:53.842Z,1.80
2018-10-02T21:40:25.083Z,2.67
2018-10-02T21:42:54.988Z,2.45
2018-10-02T21:45:24.330Z,2.95
2018-10-02T21:47:54.016Z,2.52
2018-10-02T21:50:25.097Z,3.25
2018-10-02T21:52:54.384Z,2.12
2018-10-02T21:55:23.552Z,1.90
2018-10-02T21:57:52.934Z,2.35
2018-10-02T22:00:22.521Z,1.80
2018-10-02T22:02:51.812Z,2.05
2018-10-02T22:05:21.526Z,2.75
2018-10-02T22:07:50.804Z,2.55
2018-10-02T22:10:20.307Z,2.00
2018-10-02T22:12:49.519Z,2.22
2018-10-02T22:15:19.087Z,2.20
2018-10-02T22:17:48.327Z,2.17
2018-10-02T22:20:17.991Z,1.70
2018-10-02T22:22:47.277Z,2.50
2018-10-02T22:25:16.491Z,1.80
2018-10-02T22:27:46.121Z,1.75
2018-10-02T22:30:15.700Z,2.00
2018-10-02T22:32:45.268Z,2.20
2018-10-02T22:35:14.620Z,1.80
2018-10-02T22:37:44.123Z,1.42
2018-10-02T22:40:13.745Z,2.52
2018-10-02T22:42:43.452Z,2.00
2018-10-02T22:45:13.633Z,2.30
2018-10-02T22:47:44.778Z,2.52
2018-10-02T22:50:14.230Z,1.80
2018-10-02T22:52:43.867Z,2.17
2018-10-02T22:55:13.887Z,2.10
2018-10-02T22:57:44.339Z,1.55
2018-10-02T23:00:14.906Z,1.82
2018-10-02T23:02:44.288Z,2.02
2018-10-02T23:05:13.467Z,2.20
2018-10-02T23:07:43.049Z,1.62
2018-10-02T23:10:12.760Z,2.37
2018-10-02T23:12:42.270Z,1.22
2018-10-02T23:15:12.379Z,1.62
2018-10-02T23:17:41.627Z,2.55
2018-10-02T23:20:10.823Z,2.05
2018-10-02T23:22:40.231Z,1.45
2018-10-02T23:25:09.475Z,2.42
2018-10-02T23:27:38.706Z,2.75
2018-10-02T23:30:08.175Z,2.20
2018-10-02T23:32:37.450Z,1.62
2018-10-02T23:35:06.660Z,2.37
2018-10-02T23:37:35.888Z,1.72
2018-10-02T23:40:05.595Z,1.60
2018-10-02T23:42:34.822Z,1.60
2018-10-02T23:45:04.448Z,1.67
2018-10-02T23:47:34.050Z,1.70
2018-10-02T23:50:03.271Z,1.50
2018-10-02T23:52:32.780Z,1.72
2018-10-02T23:55:02.004Z,2.35
2018-10-02T23:57:32.129Z,1.30
